sensor_id;sensor_type;location;lat;lon;timestamp;P1;durP1;ratioP1;P2;durP2;ratioP2
56037;SDS011;41907;47.848;9.000;2023-10-19T00:00:48;35.20;;;23.98;;
56037;SDS011;41907;47.848;9.000;2023-10-19T00:03:15;33.00;;;23.75;;
56037;SDS011;41907;47.848;9.000;2023-10-19T00:05:42;34.88;;;24.23;;
56037;SDS011;41907;47.848;9.000;2023-10-19T00:08:09;37.30;;;24.55;;
56037;SDS011;41907;47.848;9.000;2023-10-19T00:10:39;34.03;;;23.35;;
56037;SDS011;41907;47.848;9.000;2023-10-19T00:13:08;34.78;;;24.33;;
56037;SDS011;41907;47.848;9.000;2023-10-19T00:15:37;33.17;;;22.98;;
56037;SDS011;41907;47.848;9.000;2023-10-19T00:18:12;36.55;;;24.30;;
56037;SDS011;41907;47.848;9.000;2023-10-19T00:20:41;34.65;;;24.08;;
56037;SDS011;41907;47.848;9.000;2023-10-19T00:23:10;33.42;;;23.05;;
56037;SDS011;41907;47.848;9.000;2023-10-19T00:25:38;35.58;;;23.70;;
56037;SDS011;41907;47.848;9.000;2023-10-19T00:28:06;33.55;;;23.83;;
56037;SDS011;41907;47.848;9.000;2023-10-19T00:30:37;32.40;;;22.23;;
56037;SDS011;41907;47.848;9.000;2023-10-19T00:33:03;31.88;;;21.33;;
56037;SDS011;41907;47.848;9.000;2023-10-19T00:35:33;30.30;;;22.48;;
56037;SDS011;41907;47.848;9.000;2023-10-19T00:38:07;30.27;;;22.08;;
56037;SDS011;41907;47.848;9.000;2023-10-19T00:40:52;30.50;;;22.58;;
56037;SDS011;41907;47.848;9.000;2023-10-19T00:43:34;28.00;;;20.75;;
56037;SDS011;41907;47.848;9.000;2023-10-19T00:46:12;28.70;;;20.95;;
56037;SDS011;41907;47.848;9.000;2023-10-19T00:48:54;30.60;;;21.45;;
56037;SDS011;41907;47.848;9.000;2023-10-19T00:51:22;29.10;;;21.60;;
56037;SDS011;41907;47.848;9.000;2023-10-19T00:53:58;29.40;;;21.25;;
56037;SDS011;41907;47.848;9.000;2023-10-19T00:56:32;29.35;;;20.52;;
56037;SDS011;41907;47.848;9.000;2023-10-19T00:58:58;29.85;;;21.52;;
56037;SDS011;41907;47.848;9.000;2023-10-19T01:01:40;28.73;;;21.25;;
56037;SDS011;41907;47.848;9.000;2023-10-19T01:04:10;29.70;;;20.90;;
56037;SDS011;41907;47.848;9.000;2023-10-19T01:06:43;28.52;;;21.15;;
56037;SDS011;41907;47.848;9.000;2023-10-19T01:09:26;27.85;;;21.20;;
56037;SDS011;41907;47.848;9.000;2023-10-19T01:11:53;32.58;;;21.90;;
56037;SDS011;41907;47.848;9.000;2023-10-19T01:14:19;31.20;;;22.90;;
56037;SDS011;41907;47.848;9.000;2023-10-19T01:16:48;36.88;;;23.58;;
56037;SDS011;41907;47.848;9.000;2023-10-19T01:19:21;33.28;;;23.20;;
56037;SDS011;41907;47.848;9.000;2023-10-19T01:21:48;33.50;;;22.67;;
56037;SDS011;41907;47.848;9.000;2023-10-19T01:24:21;31.08;;;22.23;;
56037;SDS011;41907;47.848;9.000;2023-10-19T01:27:05;30.95;;;22.65;;
56037;SDS011;41907;47.848;9.000;2023-10-19T01:29:34;31.42;;;22.88;;
56037;SDS011;41907;47.848;9.000;2023-10-19T01:32:00;31.67;;;22.38;;
56037;SDS011;41907;47.848;9.000;2023-10-19T01:34:33;32.58;;;23.02;;
56037;SDS011;41907;47.848;9.000;2023-10-19T01:36:59;30.23;;;22.15;;
56037;SDS011;41907;47.848;9.000;2023-10-19T01:39:32;31.13;;;21.45;;
56037;SDS011;41907;47.848;9.000;2023-10-19T01:42:03;34.60;;;22.65;;
56037;SDS011;41907;47.848;9.000;2023-10-19T01:44:30;31.30;;;22.63;;
56037;SDS011;41907;47.848;9.000;2023-10-19T01:46:56;29.48;;;21.13;;
56037;SDS011;41907;47.848;9.000;2023-10-19T01:49:21;27.48;;;20.38;;
56037;SDS011;41907;47.848;9.000;2023-10-19T01:51:53;30.05;;;20.38;;
56037;SDS011;41907;47.848;9.000;2023-10-19T01:54:19;27.20;;;20.65;;
56037;SDS011;41907;47.848;9.000;2023-10-19T01:56:53;26.17;;;19.38;;
56037;SDS011;41907;47.848;9.000;2023-10-19T01:59:22;25.52;;;19.67;;
56037;SDS011;41907;47.848;9.000;2023-10-19T02:01:48;28.65;;;20.70;;
56037;SDS011;41907;47.848;9.000;2023-10-19T02:04:14;26.83;;;19.48;;
56037;SDS011;41907;47.848;9.000;2023-10-19T02:06:40;28.30;;;21.17;;
56037;SDS011;41907;47.848;9.000;2023-10-19T02:09:06;27.35;;;19.70;;
56037;SDS011;41907;47.848;9.000;2023-10-19T02:11:55;31.08;;;21.05;;
56037;SDS011;41907;47.848;9.000;2023-10-19T02:14:22;30.67;;;21.58;;
56037;SDS011;41907;47.848;9.000;2023-10-19T02:16:51;30.75;;;21.00;;
56037;SDS011;41907;47.848;9.000;2023-10-19T02:19:18;29.13;;;21.67;;
56037;SDS011;41907;47.848;9.000;2023-10-19T02:21:45;29.25;;;20.65;;
56037;SDS011;41907;47.848;9.000;2023-10-19T02:24:13;29.55;;;21.65;;
56037;SDS011;41907;47.848;9.000;2023-10-19T02:26:39;31.27;;;21.35;;
56037;SDS011;41907;47.848;9.000;2023-10-19T02:29:08;26.15;;;19.60;;
56037;SDS011;41907;47.848;9.000;2023-10-19T02:31:38;31.15;;;21.05;;
56037;SDS011;41907;47.848;9.000;2023-10-19T02:34:09;42.90;;;28.25;;
56037;SDS011;41907;47.848;9.000;2023-10-19T02:36:37;36.15;;;25.88;;
56037;SDS011;41907;47.848;9.000;2023-10-19T02:39:05;27.52;;;20.50;;
56037;SDS011;41907;47.848;9.000;2023-10-19T02:41:35;28.80;;;21.17;;
56037;SDS011;41907;47.848;9.000;2023-10-19T02:44:01;30.92;;;21.15;;
56037;SDS011;41907;47.848;9.000;2023-10-19T02:46:34;29.80;;;21.30;;
56037;SDS011;41907;47.848;9.000;2023-10-19T02:49:03;29.90;;;21.35;;
56037;SDS011;41907;47.848;9.000;2023-10-19T02:51:34;31.85;;;21.35;;
56037;SDS011;41907;47.848;9.000;2023-10-19T02:54:00;32.15;;;22.23;;
56037;SDS011;41907;47.848;9.000;2023-10-19T02:56:27;31.45;;;22.33;;
56037;SDS011;41907;47.848;9.000;2023-10-19T02:58:54;31.08;;;22.45;;
56037;SDS011;41907;47.848;9.000;2023-10-19T03:01:26;33.83;;;23.20;;
56037;SDS011;41907;47.848;9.000;2023-10-19T03:03:55;33.78;;;24.10;;
56037;SDS011;41907;47.848;9.000;2023-10-19T03:06:25;31.02;;;22.63;;
56037;SDS011;41907;47.848;9.000;2023-10-19T03:09:00;30.83;;;21.58;;
56037;SDS011;41907;47.848;9.000;2023-10-19T03:11:47;29.38;;;21.52;;
56037;SDS011;41907;47.848;9.000;2023-10-19T03:14:17;29.98;;;21.40;;
56037;SDS011;41907;47.848;9.000;2023-10-19T03:16:43;29.88;;;21.40;;
56037;SDS011;41907;47.848;9.000;2023-10-19T03:19:08;29.17;;;21.13;;
56037;SDS011;41907;47.848;9.000;2023-10-19T03:21:34;29.45;;;19.88;;
56037;SDS011;41907;47.848;9.000;2023-10-19T03:24:08;30.42;;;20.92;;
56037;SDS011;41907;47.848;9.000;2023-10-19T03:26:52;28.20;;;21.17;;
56037;SDS011;41907;47.848;9.000;2023-10-19T03:29:19;28.92;;;20.77;;
56037;SDS011;41907;47.848;9.000;2023-10-19T03:31:47;28.02;;;20.52;;
56037;SDS011;41907;47.848;9.000;2023-10-19T03:34:13;26.73;;;20.58;;
56037;SDS011;41907;47.848;9.000;2023-10-19T03:36:41;27.90;;;21.02;;
56037;SDS011;41907;47.848;9.000;2023-10-19T03:39:07;24.70;;;18.35;;
56037;SDS011;41907;47.848;9.000;2023-10-19T03:41:39;24.63;;;17.95;;
56037;SDS011;41907;47.848;9.000;2023-10-19T03:44:12;24.45;;;19.00;;
56037;SDS011;41907;47.848;9.000;2023-10-19T03:46:59;26.60;;;19.80;;
56037;SDS011;41907;47.848;9.000;2023-10-19T03:49:29;25.10;;;19.00;;
56037;SDS011;41907;47.848;9.000;2023-10-19T03:52:03;25.77;;;18.77;;
56037;SDS011;41907;47.848;9.000;2023-10-19T03:54:45;25.23;;;19.15;;
56037;SDS011;41907;47.848;9.000;2023-10-19T03:57:14;24.08;;;17.70;;
56037;SDS011;41907;47.848;9.000;2023-10-19T03:59:44;25.55;;;18.98;;
56037;SDS011;41907;47.848;9.000;2023-10-19T04:02:12;23.85;;;18.00;;
56037;SDS011;41907;47.848;9.000;2023-10-19T04:04:45;29.10;;;20.13;;
56037;SDS011;41907;47.848;9.000;2023-10-19T04:07:13;26.67;;;18.83;;
56037;SDS011;41907;47.848;9.000;2023-10-19T04:09:56;25.85;;;18.80;;
56037;SDS011;41907;47.848;9.000;2023-10-19T04:12:23;24.83;;;19.88;;
56037;SDS011;41907;47.848;9.000;2023-10-19T04:14:48;27.73;;;19.75;;
56037;SDS011;41907;47.848;9.000;2023-10-19T04:17:14;27.95;;;19.83;;
56037;SDS011;41907;47.848;9.000;2023-10-19T04:19:41;28.83;;;19.60;;
56037;SDS011;41907;47.848;9.000;2023-10-19T04:22:06;28.75;;;19.63;;
56037;SDS011;41907;47.848;9.000;2023-10-19T04:24:36;27.00;;;21.27;;
56037;SDS011;41907;47.848;9.000;2023-10-19T04:27:01;28.25;;;20.77;;
56037;SDS011;41907;47.848;9.000;2023-10-19T04:29:26;27.88;;;20.50;;
56037;SDS011;41907;47.848;9.000;2023-10-19T04:31:54;31.02;;;21.88;;
56037;SDS011;41907;47.848;9.000;2023-10-19T04:34:20;29.02;;;20.52;;
56037;SDS011;41907;47.848;9.000;2023-10-19T04:36:47;27.70;;;20.40;;
56037;SDS011;41907;47.848;9.000;2023-10-19T04:39:13;32.83;;;22.05;;
56037;SDS011;41907;47.848;9.000;2023-10-19T04:41:41;28.77;;;20.70;;
56037;SDS011;41907;47.848;9.000;2023-10-19T04:44:07;32.05;;;21.92;;
56037;SDS011;41907;47.848;9.000;2023-10-19T04:46:36;30.35;;;21.52;;
56037;SDS011;41907;47.848;9.000;2023-10-19T04:49:01;31.90;;;22.70;;
56037;SDS011;41907;47.848;9.000;2023-10-19T04:51:28;33.00;;;21.77;;
56037;SDS011;41907;47.848;9.000;2023-10-19T04:53:54;31.52;;;21.23;;
56037;SDS011;41907;47.848;9.000;2023-10-19T04:56:20;30.35;;;22.27;;
56037;SDS011;41907;47.848;9.000;2023-10-19T04:58:45;35.35;;;22.73;;
56037;SDS011;41907;47.848;9.000;2023-10-19T05:01:12;28.55;;;20.10;;
56037;SDS011;41907;47.848;9.000;2023-10-19T05:03:37;28.92;;;20.90;;
56037;SDS011;41907;47.848;9.000;2023-10-19T05:06:03;29.65;;;20.15;;
56037;SDS011;41907;47.848;9.000;2023-10-19T05:08:28;28.08;;;21.30;;
56037;SDS011;41907;47.848;9.000;2023-10-19T05:10:55;31.50;;;23.52;;
56037;SDS011;41907;47.848;9.000;2023-10-19T05:13:24;29.95;;;21.60;;
56037;SDS011;41907;47.848;9.000;2023-10-19T05:15:50;35.38;;;23.60;;
56037;SDS011;41907;47.848;9.000;2023-10-19T05:18:18;31.50;;;23.13;;
56037;SDS011;41907;47.848;9.000;2023-10-19T05:20:44;35.33;;;23.60;;
56037;SDS011;41907;47.848;9.000;2023-10-19T05:23:11;33.13;;;23.30;;
56037;SDS011;41907;47.848;9.000;2023-10-19T05:25:38;28.00;;;21.17;;
56037;SDS011;41907;47.848;9.000;2023-10-19T05:28:06;37.78;;;21.65;;
56037;SDS011;41907;47.848;9.000;2023-10-19T05:30:33;34.63;;;22.92;;
56037;SDS011;41907;47.848;9.000;2023-10-19T05:33:00;29.42;;;21.52;;
56037;SDS011;41907;47.848;9.000;2023-10-19T05:35:26;29.35;;;20.65;;
56037;SDS011;41907;47.848;9.000;2023-10-19T05:37:53;28.85;;;20.38;;
56037;SDS011;41907;47.848;9.000;2023-10-19T05:40:20;27.98;;;20.50;;
56037;SDS011;41907;47.848;9.000;2023-10-19T05:42:48;31.13;;;22.17;;
56037;SDS011;41907;47.848;9.000;2023-10-19T05:45:14;31.25;;;21.48;;
56037;SDS011;41907;47.848;9.000;2023-10-19T05:47:41;33.25;;;22.77;;
56037;SDS011;41907;47.848;9.000;2023-10-19T05:50:08;34.58;;;22.98;;
56037;SDS011;41907;47.848;9.000;2023-10-19T05:52:34;34.80;;;23.90;;
56037;SDS011;41907;47.848;9.000;2023-10-19T05:54:59;34.80;;;24.50;;
56037;SDS011;41907;47.848;9.000;2023-10-19T05:57:25;35.72;;;23.75;;
56037;SDS011;41907;47.848;9.000;2023-10-19T05:59:50;40.83;;;24.55;;
56037;SDS011;41907;47.848;9.000;2023-10-19T06:02:15;36.63;;;24.55;;
56037;SDS011;41907;47.848;9.000;2023-10-19T06:04:42;35.47;;;22.67;;
56037;SDS011;41907;47.848;9.000;2023-10-19T06:07:08;34.63;;;23.70;;
56037;SDS011;41907;47.848;9.000;2023-10-19T06:09:35;35.20;;;24.58;;
56037;SDS011;41907;47.848;9.000;2023-10-19T06:12:01;37.63;;;24.52;;
56037;SDS011;41907;47.848;9.000;2023-10-19T06:14:27;36.80;;;24.17;;
56037;SDS011;41907;47.848;9.000;2023-10-19T06:16:55;35.65;;;23.33;;
56037;SDS011;41907;47.848;9.000;2023-10-19T06:19:21;34.35;;;23.88;;
56037;SDS011;41907;47.848;9.000;2023-10-19T06:21:47;35.45;;;23.52;;
56037;SDS011;41907;47.848;9.000;2023-10-19T06:24:12;31.17;;;23.23;;
56037;SDS011;41907;47.848;9.000;2023-10-19T06:26:40;34.10;;;23.17;;
56037;SDS011;41907;47.848;9.000;2023-10-19T06:29:07;30.25;;;21.40;;
56037;SDS011;41907;47.848;9.000;2023-10-19T06:31:32;33.50;;;23.20;;
56037;SDS011;41907;47.848;9.000;2023-10-19T06:33:57;28.38;;;20.92;;
56037;SDS011;41907;47.848;9.000;2023-10-19T06:36:23;32.25;;;23.23;;
56037;SDS011;41907;47.848;9.000;2023-10-19T06:38:48;31.90;;;22.55;;
56037;SDS011;41907;47.848;9.000;2023-10-19T06:41:16;30.38;;;20.63;;
56037;SDS011;41907;47.848;9.000;2023-10-19T06:43:43;28.27;;;20.45;;
56037;SDS011;41907;47.848;9.000;2023-10-19T06:46:09;27.90;;;20.85;;
56037;SDS011;41907;47.848;9.000;2023-10-19T06:48:36;34.13;;;20.08;;
56037;SDS011;41907;47.848;9.000;2023-10-19T06:51:02;30.58;;;21.17;;
56037;SDS011;41907;47.848;9.000;2023-10-19T06:53:27;34.38;;;22.00;;
56037;SDS011;41907;47.848;9.000;2023-10-19T06:55:53;32.03;;;22.17;;
56037;SDS011;41907;47.848;9.000;2023-10-19T06:58:19;39.55;;;23.95;;
56037;SDS011;41907;47.848;9.000;2023-10-19T07:00:45;36.65;;;22.67;;
56037;SDS011;41907;47.848;9.000;2023-10-19T07:08:11;31.60;;;22.47;;
56037;SDS011;41907;47.848;9.000;2023-10-19T07:10:36;33.35;;;23.67;;
56037;SDS011;41907;47.848;9.000;2023-10-19T07:13:02;29.60;;;21.48;;
56037;SDS011;41907;47.848;9.000;2023-10-19T07:15:28;30.25;;;21.05;;
56037;SDS011;41907;47.848;9.000;2023-10-19T07:17:54;30.08;;;20.95;;
56037;SDS011;41907;47.848;9.000;2023-10-19T07:20:20;28.05;;;20.25;;
56037;SDS011;41907;47.848;9.000;2023-10-19T07:23:02;29.48;;;23.17;;
56037;SDS011;41907;47.848;9.000;2023-10-19T07:25:33;31.20;;;23.33;;
56037;SDS011;41907;47.848;9.000;2023-10-19T07:28:07;29.17;;;21.80;;
56037;SDS011;41907;47.848;9.000;2023-10-19T07:30:34;27.63;;;20.17;;
56037;SDS011;41907;47.848;9.000;2023-10-19T07:33:00;27.58;;;20.48;;
56037;SDS011;41907;47.848;9.000;2023-10-19T07:35:26;27.10;;;20.05;;
56037;SDS011;41907;47.848;9.000;2023-10-19T07:37:52;29.60;;;20.80;;
56037;SDS011;41907;47.848;9.000;2023-10-19T07:40:18;28.35;;;19.13;;
56037;SDS011;41907;47.848;9.000;2023-10-19T07:42:44;26.10;;;20.23;;
56037;SDS011;41907;47.848;9.000;2023-10-19T07:45:11;27.58;;;20.45;;
56037;SDS011;41907;47.848;9.000;2023-10-19T07:47:37;28.02;;;20.30;;
56037;SDS011;41907;47.848;9.000;2023-10-19T07:50:07;29.17;;;21.20;;
56037;SDS011;41907;47.848;9.000;2023-10-19T07:52:37;37.53;;;29.00;;
56037;SDS011;41907;47.848;9.000;2023-10-19T07:55:04;29.45;;;21.98;;
56037;SDS011;41907;47.848;9.000;2023-10-19T07:57:30;29.77;;;22.45;;
56037;SDS011;41907;47.848;9.000;2023-10-19T07:59:55;29.77;;;21.33;;
56037;SDS011;41907;47.848;9.000;2023-10-19T08:02:21;29.98;;;21.00;;
56037;SDS011;41907;47.848;9.000;2023-10-19T08:04:49;27.75;;;20.27;;
56037;SDS011;41907;47.848;9.000;2023-10-19T08:07:15;28.75;;;20.77;;
56037;SDS011;41907;47.848;9.000;2023-10-19T08:09:42;31.58;;;21.73;;
56037;SDS011;41907;47.848;9.000;2023-10-19T08:12:07;33.15;;;21.30;;
56037;SDS011;41907;47.848;9.000;2023-10-19T08:14:34;28.20;;;20.60;;
56037;SDS011;41907;47.848;9.000;2023-10-19T08:16:59;28.73;;;21.77;;
56037;SDS011;41907;47.848;9.000;2023-10-19T08:19:26;30.33;;;20.63;;
56037;SDS011;41907;47.848;9.000;2023-10-19T08:21:52;29.35;;;20.88;;
56037;SDS011;41907;47.848;9.000;2023-10-19T08:24:18;27.60;;;20.58;;
56037;SDS011;41907;47.848;9.000;2023-10-19T08:26:46;29.30;;;21.67;;
56037;SDS011;41907;47.848;9.000;2023-10-19T08:29:12;29.15;;;20.85;;
56037;SDS011;41907;47.848;9.000;2023-10-19T08:31:40;28.45;;;19.92;;
56037;SDS011;41907;47.848;9.000;2023-10-19T08:34:07;31.40;;;20.80;;
56037;SDS011;41907;47.848;9.000;2023-10-19T08:36:42;32.53;;;21.38;;
56037;SDS011;41907;47.848;9.000;2023-10-19T08:39:08;31.00;;;21.52;;
56037;SDS011;41907;47.848;9.000;2023-10-19T08:41:37;26.33;;;19.52;;
56037;SDS011;41907;47.848;9.000;2023-10-19T08:44:03;24.92;;;18.58;;
56037;SDS011;41907;47.848;9.000;2023-10-19T08:46:35;27.92;;;19.38;;
56037;SDS011;41907;47.848;9.000;2023-10-19T08:49:08;26.20;;;19.23;;
56037;SDS011;41907;47.848;9.000;2023-10-19T08:51:37;28.33;;;19.98;;
56037;SDS011;41907;47.848;9.000;2023-10-19T08:54:04;30.13;;;21.08;;
56037;SDS011;41907;47.848;9.000;2023-10-19T08:56:30;26.98;;;19.73;;
56037;SDS011;41907;47.848;9.000;2023-10-19T08:58:58;29.73;;;20.80;;
56037;SDS011;41907;47.848;9.000;2023-10-19T09:01:24;32.03;;;22.10;;
56037;SDS011;41907;47.848;9.000;2023-10-19T09:03:52;27.75;;;18.52;;
56037;SDS011;41907;47.848;9.000;2023-10-19T09:06:20;27.48;;;21.50;;
56037;SDS011;41907;47.848;9.000;2023-10-19T09:08:46;30.42;;;20.48;;
56037;SDS011;41907;47.848;9.000;2023-10-19T09:11:13;26.70;;;19.20;;
56037;SDS011;41907;47.848;9.000;2023-10-19T09:13:43;45.95;;;30.42;;
56037;SDS011;41907;47.848;9.000;2023-10-19T09:16:09;52.38;;;33.67;;
56037;SDS011;41907;47.848;9.000;2023-10-19T09:18:35;35.35;;;23.75;;
56037;SDS011;41907;47.848;9.000;2023-10-19T09:21:00;27.17;;;20.30;;
56037;SDS011;41907;47.848;9.000;2023-10-19T09:23:32;25.27;;;19.83;;
56037;SDS011;41907;47.848;9.000;2023-10-19T09:25:59;31.48;;;21.90;;
56037;SDS011;41907;47.848;9.000;2023-10-19T09:28:28;33.00;;;21.98;;
56037;SDS011;41907;47.848;9.000;2023-10-19T09:30:54;29.45;;;20.05;;
56037;SDS011;41907;47.848;9.000;2023-10-19T09:33:20;26.42;;;20.83;;
56037;SDS011;41907;47.848;9.000;2023-10-19T09:35:47;27.27;;;20.83;;
56037;SDS011;41907;47.848;9.000;2023-10-19T09:38:16;24.63;;;19.23;;
56037;SDS011;41907;47.848;9.000;2023-10-19T09:40:51;25.30;;;18.45;;
56037;SDS011;41907;47.848;9.000;2023-10-19T09:44:04;25.05;;;18.60;;
56037;SDS011;41907;47.848;9.000;2023-10-19T09:46:16;27.08;;;20.30;;
56037;SDS011;41907;47.848;9.000;2023-10-19T09:48:46;28.20;;;21.05;;
56037;SDS011;41907;47.848;9.000;2023-10-19T09:51:17;28.92;;;22.27;;
56037;SDS011;41907;47.848;9.000;2023-10-19T09:53:45;28.75;;;20.67;;
56037;SDS011;41907;47.848;9.000;2023-10-19T09:56:21;28.08;;;20.67;;
56037;SDS011;41907;47.848;9.000;2023-10-19T09:58:53;28.77;;;21.42;;
56037;SDS011;41907;47.848;9.000;2023-10-19T10:01:22;27.85;;;20.77;;
56037;SDS011;41907;47.848;9.000;2023-10-19T10:03:51;33.08;;;22.13;;
56037;SDS011;41907;47.848;9.000;2023-10-19T10:06:28;30.23;;;22.23;;
56037;SDS011;41907;47.848;9.000;2023-10-19T10:08:54;27.60;;;20.80;;
56037;SDS011;41907;47.848;9.000;2023-10-19T10:11:22;30.17;;;21.95;;
56037;SDS011;41907;47.848;9.000;2023-10-19T10:13:52;29.45;;;22.05;;
56037;SDS011;41907;47.848;9.000;2023-10-19T10:16:19;32.20;;;22.60;;
56037;SDS011;41907;47.848;9.000;2023-10-19T10:18:47;30.10;;;22.15;;
56037;SDS011;41907;47.848;9.000;2023-10-19T10:23:46;31.73;;;24.30;;
56037;SDS011;41907;47.848;9.000;2023-10-19T10:26:14;34.95;;;24.58;;
56037;SDS011;41907;47.848;9.000;2023-10-19T10:28:40;29.60;;;21.80;;
56037;SDS011;41907;47.848;9.000;2023-10-19T10:31:11;29.50;;;22.02;;
56037;SDS011;41907;47.848;9.000;2023-10-19T10:33:41;30.38;;;21.25;;
56037;SDS011;41907;47.848;9.000;2023-10-19T10:36:11;25.95;;;18.70;;
56037;SDS011;41907;47.848;9.000;2023-10-19T10:38:38;28.55;;;20.75;;
56037;SDS011;41907;47.848;9.000;2023-10-19T10:41:04;26.73;;;19.15;;
56037;SDS011;41907;47.848;9.000;2023-10-19T10:43:30;29.27;;;20.67;;
56037;SDS011;41907;47.848;9.000;2023-10-19T10:46:05;23.42;;;18.10;;
56037;SDS011;41907;47.848;9.000;2023-10-19T10:48:32;24.17;;;16.92;;
56037;SDS011;41907;47.848;9.000;2023-10-19T10:50:58;23.77;;;18.80;;
56037;SDS011;41907;47.848;9.000;2023-10-19T10:53:23;24.92;;;18.60;;
56037;SDS011;41907;47.848;9.000;2023-10-19T10:55:52;23.15;;;17.92;;
56037;SDS011;41907;47.848;9.000;2023-10-19T10:58:20;22.73;;;17.38;;
56037;SDS011;41907;47.848;9.000;2023-10-19T11:00:46;24.45;;;17.95;;
56037;SDS011;41907;47.848;9.000;2023-10-19T11:03:13;23.75;;;18.00;;
56037;SDS011;41907;47.848;9.000;2023-10-19T11:05:39;25.17;;;18.88;;
56037;SDS011;41907;47.848;9.000;2023-10-19T11:08:08;24.42;;;18.38;;
56037;SDS011;41907;47.848;9.000;2023-10-19T11:10:35;25.17;;;17.55;;
56037;SDS011;41907;47.848;9.000;2023-10-19T11:13:44;34.80;;;22.92;;
56037;SDS011;41907;47.848;9.000;2023-10-19T11:15:53;29.65;;;21.55;;
56037;SDS011;41907;47.848;9.000;2023-10-19T11:21:03;27.13;;;18.77;;
56037;SDS011;41907;47.848;9.000;2023-10-19T11:26:10;23.75;;;18.23;;
56037;SDS011;41907;47.848;9.000;2023-10-19T11:28:37;24.15;;;17.50;;
56037;SDS011;41907;47.848;9.000;2023-10-19T11:33:47;18.88;;;15.77;;
56037;SDS011;41907;47.848;9.000;2023-10-19T11:36:14;18.50;;;15.23;;
56037;SDS011;41907;47.848;9.000;2023-10-19T11:38:40;16.75;;;14.50;;
56037;SDS011;41907;47.848;9.000;2023-10-19T11:41:07;16.58;;;14.88;;
56037;SDS011;41907;47.848;9.000;2023-10-19T11:43:33;17.27;;;14.05;;
56037;SDS011;41907;47.848;9.000;2023-10-19T11:45:59;21.85;;;16.55;;
56037;SDS011;41907;47.848;9.000;2023-10-19T11:48:25;18.00;;;14.80;;
56037;SDS011;41907;47.848;9.000;2023-10-19T11:50:51;17.17;;;14.93;;
56037;SDS011;41907;47.848;9.000;2023-10-19T11:53:16;18.92;;;14.00;;
56037;SDS011;41907;47.848;9.000;2023-10-19T11:55:42;18.10;;;15.57;;
56037;SDS011;41907;47.848;9.000;2023-10-19T11:58:07;20.33;;;16.33;;
56037;SDS011;41907;47.848;9.000;2023-10-19T12:00:36;20.60;;;16.17;;
56037;SDS011;41907;47.848;9.000;2023-10-19T12:03:03;18.98;;;14.85;;
56037;SDS011;41907;47.848;9.000;2023-10-19T12:05:28;19.70;;;15.57;;
56037;SDS011;41907;47.848;9.000;2023-10-19T12:07:54;18.67;;;15.85;;
56037;SDS011;41907;47.848;9.000;2023-10-19T12:10:21;20.50;;;15.88;;
56037;SDS011;41907;47.848;9.000;2023-10-19T12:12:53;19.55;;;15.55;;
56037;SDS011;41907;47.848;9.000;2023-10-19T12:15:18;20.25;;;16.40;;
56037;SDS011;41907;47.848;9.000;2023-10-19T12:17:47;20.88;;;16.33;;
56037;SDS011;41907;47.848;9.000;2023-10-19T12:20:13;21.00;;;16.60;;
56037;SDS011;41907;47.848;9.000;2023-10-19T12:22:39;21.20;;;16.65;;
56037;SDS011;41907;47.848;9.000;2023-10-19T12:25:05;18.88;;;15.02;;
56037;SDS011;41907;47.848;9.000;2023-10-19T12:27:31;20.80;;;16.33;;
56037;SDS011;41907;47.848;9.000;2023-10-19T12:29:56;34.35;;;25.15;;
56037;SDS011;41907;47.848;9.000;2023-10-19T12:32:24;51.45;;;38.95;;
56037;SDS011;41907;47.848;9.000;2023-10-19T12:34:49;27.42;;;20.23;;
56037;SDS011;41907;47.848;9.000;2023-10-19T12:37:18;28.88;;;21.83;;
56037;SDS011;41907;47.848;9.000;2023-10-19T12:39:45;35.85;;;24.42;;
56037;SDS011;41907;47.848;9.000;2023-10-19T12:42:14;26.90;;;18.05;;
56037;SDS011;41907;47.848;9.000;2023-10-19T12:44:39;21.10;;;17.02;;
56037;SDS011;41907;47.848;9.000;2023-10-19T12:47:06;21.08;;;17.20;;
56037;SDS011;41907;47.848;9.000;2023-10-19T12:49:38;24.52;;;17.63;;
56037;SDS011;41907;47.848;9.000;2023-10-19T12:52:06;24.27;;;18.90;;
56037;SDS011;41907;47.848;9.000;2023-10-19T12:54:33;24.58;;;17.95;;
56037;SDS011;41907;47.848;9.000;2023-10-19T12:57:00;27.08;;;18.40;;
56037;SDS011;41907;47.848;9.000;2023-10-19T12:59:28;22.95;;;17.30;;
56037;SDS011;41907;47.848;9.000;2023-10-19T13:01:54;24.00;;;17.63;;
56037;SDS011;41907;47.848;9.000;2023-10-19T13:04:23;22.77;;;17.48;;
56037;SDS011;41907;47.848;9.000;2023-10-19T13:06:49;26.80;;;20.80;;
56037;SDS011;41907;47.848;9.000;2023-10-19T13:09:15;21.52;;;15.02;;
56037;SDS011;41907;47.848;9.000;2023-10-19T13:11:46;21.63;;;15.85;;
56037;SDS011;41907;47.848;9.000;2023-10-19T13:14:17;20.80;;;15.75;;
56037;SDS011;41907;47.848;9.000;2023-10-19T13:16:43;20.60;;;15.68;;
56037;SDS011;41907;47.848;9.000;2023-10-19T13:19:08;21.55;;;16.15;;
56037;SDS011;41907;47.848;9.000;2023-10-19T13:21:38;20.58;;;14.95;;
56037;SDS011;41907;47.848;9.000;2023-10-19T13:24:03;21.08;;;15.57;;
56037;SDS011;41907;47.848;9.000;2023-10-19T13:26:30;24.88;;;16.17;;
56037;SDS011;41907;47.848;9.000;2023-10-19T13:28:57;20.25;;;15.05;;
56037;SDS011;41907;47.848;9.000;2023-10-19T13:31:22;19.80;;;15.15;;
56037;SDS011;41907;47.848;9.000;2023-10-19T13:33:47;20.63;;;16.27;;
56037;SDS011;41907;47.848;9.000;2023-10-19T13:36:13;22.67;;;17.05;;
56037;SDS011;41907;47.848;9.000;2023-10-19T13:38:38;21.38;;;16.67;;
56037;SDS011;41907;47.848;9.000;2023-10-19T13:41:04;19.80;;;14.68;;
56037;SDS011;41907;47.848;9.000;2023-10-19T13:43:34;17.27;;;14.35;;
56037;SDS011;41907;47.848;9.000;2023-10-19T13:46:01;17.90;;;13.73;;
56037;SDS011;41907;47.848;9.000;2023-10-19T13:48:27;20.58;;;15.45;;
56037;SDS011;41907;47.848;9.000;2023-10-19T13:50:52;19.05;;;14.55;;
56037;SDS011;41907;47.848;9.000;2023-10-19T13:53:25;20.88;;;14.82;;
56037;SDS011;41907;47.848;9.000;2023-10-19T13:55:53;17.42;;;13.88;;
56037;SDS011;41907;47.848;9.000;2023-10-19T13:58:18;19.92;;;14.05;;
56037;SDS011;41907;47.848;9.000;2023-10-19T14:00:44;18.17;;;15.02;;
56037;SDS011;41907;47.848;9.000;2023-10-19T14:03:10;19.60;;;15.77;;
56037;SDS011;41907;47.848;9.000;2023-10-19T14:05:42;16.27;;;13.95;;
56037;SDS011;41907;47.848;9.000;2023-10-19T14:08:12;18.17;;;13.88;;
56037;SDS011;41907;47.848;9.000;2023-10-19T14:10:39;19.08;;;14.82;;
56037;SDS011;41907;47.848;9.000;2023-10-19T14:13:06;15.65;;;12.48;;
56037;SDS011;41907;47.848;9.000;2023-10-19T14:15:32;20.02;;;13.90;;
56037;SDS011;41907;47.848;9.000;2023-10-19T14:17:59;22.55;;;15.27;;
56037;SDS011;41907;47.848;9.000;2023-10-19T14:20:25;18.10;;;13.82;;
56037;SDS011;41907;47.848;9.000;2023-10-19T14:22:53;17.90;;;12.82;;
56037;SDS011;41907;47.848;9.000;2023-10-19T14:25:19;17.35;;;13.45;;
56037;SDS011;41907;47.848;9.000;2023-10-19T14:27:47;15.43;;;12.13;;
56037;SDS011;41907;47.848;9.000;2023-10-19T14:30:14;16.65;;;12.02;;
56037;SDS011;41907;47.848;9.000;2023-10-19T14:32:42;16.02;;;11.57;;
56037;SDS011;41907;47.848;9.000;2023-10-19T14:35:09;18.02;;;12.45;;
56037;SDS011;41907;47.848;9.000;2023-10-19T14:37:39;16.65;;;12.35;;
56037;SDS011;41907;47.848;9.000;2023-10-19T14:40:06;17.80;;;12.73;;
56037;SDS011;41907;47.848;9.000;2023-10-19T14:42:36;17.20;;;12.43;;